Terminal Aerodrome Forecast
Issued by NWS

Home | Current Version | Previous Version | Text Only | Print | Product List | Glossary On
Versions: 1 2 3 4 5 6 7 8 9 10 11 12 13 14 15
000
FTUS45 KSLC 051007 AAB
TAFOGD
TAF AMD
KOGD 051007Z 0510/0606 33018G28KT P6SM SCT060 OVC080
     FM051200 34008KT P6SM VCSH SCT020 BKN040
     FM051600 33006KT P6SM SCT070
     FM060300 16006KT P6SM SCT070=

USA.gov is the U.S. government's official web portal to all federal, state and local government web resources and services.